createdAt,value
2023-04-18T00:01:21.435Z,14.18
2023-04-18T00:03:52.289Z,14.48
2023-04-18T00:06:22.153Z,13.27
2023-04-18T00:08:49.644Z,13.32
2023-04-18T00:11:17.086Z,12.05
2023-04-18T00:13:47.352Z,13.02
2023-04-18T00:16:15.639Z,12.15
2023-04-18T00:18:43.150Z,10.88
2023-04-18T00:21:10.678Z,11.15
2023-04-18T00:23:38.577Z,12.27
2023-04-18T00:26:06.001Z,12.05
2023-04-18T00:28:33.483Z,11.05
2023-04-18T00:31:01.031Z,10.30
2023-04-18T00:33:28.480Z,10.82
2023-04-18T00:35:55.947Z,10.90
2023-04-18T00:38:23.401Z,10.52
2023-04-18T00:40:50.892Z,11.18
2023-04-18T00:43:18.357Z,10.90
2023-04-18T00:45:45.822Z,11.10
2023-04-18T00:48:13.788Z,10.98
2023-04-18T00:50:41.726Z,10.57
2023-04-18T00:53:11.174Z,11.32
2023-04-18T00:55:39.943Z,11.20
2023-04-18T00:58:07.499Z,11.40
2023-04-18T01:00:35.529Z,9.95
2023-04-18T01:03:03.467Z,11.10
2023-04-18T01:05:31.206Z,11.27
2023-04-18T01:08:01.144Z,11.45
2023-04-18T01:10:30.514Z,11.40
2023-04-18T01:13:16.160Z,10.13
2023-04-18T01:15:49.652Z,10.18
2023-04-18T01:18:17.930Z,11.25
2023-04-18T01:20:50.091Z,10.68
2023-04-18T01:23:21.255Z,10.23
2023-04-18T01:25:51.980Z,11.55
2023-04-18T01:28:23.846Z,11.10
2023-04-18T01:30:51.491Z,11.45
2023-04-18T01:33:19.001Z,11.50
2023-04-18T01:35:47.864Z,10.68
2023-04-18T01:38:15.423Z,11.65
2023-04-18T01:40:42.927Z,12.25
2023-04-18T01:43:10.385Z,12.50
2023-04-18T01:45:38.739Z,12.40
2023-04-18T01:48:06.529Z,11.35
2023-04-18T01:50:34.088Z,11.73
2023-04-18T01:53:01.555Z,12.23
2023-04-18T01:55:29.052Z,11.52
2023-04-18T01:57:56.624Z,11.75
2023-04-18T02:00:24.377Z,11.60
2023-04-18T02:02:51.930Z,11.80
2023-04-18T02:05:21.597Z,11.65
2023-04-18T02:07:50.235Z,11.85
2023-04-18T02:10:19.203Z,11.85
2023-04-18T02:12:46.845Z,12.60
2023-04-18T02:15:14.330Z,13.23
2023-04-18T02:17:42.256Z,12.25
2023-04-18T02:20:10.797Z,12.18
2023-04-18T02:22:39.448Z,11.38
2023-04-18T02:25:07.562Z,12.85
2023-04-18T02:27:35.184Z,13.13
2023-04-18T02:30:02.762Z,11.88
2023-04-18T02:32:34.308Z,12.15
2023-04-18T02:35:01.917Z,13.45
2023-04-18T02:37:29.332Z,12.80
2023-04-18T02:39:56.907Z,13.35
2023-04-18T02:42:24.415Z,12.57
2023-04-18T02:44:52.009Z,12.73
2023-04-18T02:47:19.791Z,12.73
2023-04-18T02:49:47.650Z,12.55
2023-04-18T02:52:15.333Z,12.98
2023-04-18T02:54:42.797Z,13.30
2023-04-18T02:57:15.253Z,13.02
2023-04-18T02:59:54.888Z,13.68
2023-04-18T03:02:57.968Z,12.32
2023-04-18T03:05:42.084Z,12.17
2023-04-18T03:08:09.804Z,13.77
2023-04-18T03:10:39.292Z,12.55
2023-04-18T03:13:06.922Z,12.43
2023-04-18T03:15:34.589Z,12.77
2023-04-18T03:18:02.787Z,13.05
2023-04-18T03:23:02.070Z,11.95
2023-04-18T03:25:31.685Z,12.13
2023-04-18T03:28:00.082Z,13.02
2023-04-18T03:30:28.587Z,11.73
2023-04-18T03:32:59.427Z,12.60
2023-04-18T03:35:26.864Z,11.98
2023-04-18T03:37:55.636Z,13.30
2023-04-18T03:40:26.293Z,13.27
2023-04-18T03:42:57.932Z,13.15
2023-04-18T03:45:25.837Z,14.05
2023-04-18T03:48:18.108Z,13.75
2023-04-18T03:50:47.288Z,12.07
2023-04-18T03:53:16.145Z,13.48
2023-04-18T03:55:43.973Z,12.13
2023-04-18T03:58:14.552Z,12.63
2023-04-18T04:00:42.489Z,12.98
2023-04-18T04:03:11.952Z,12.50
2023-04-18T04:05:40.746Z,13.27
2023-04-18T04:08:08.175Z,13.50
2023-04-18T04:10:35.960Z,12.52
2023-04-18T04:13:03.788Z,13.32
2023-04-18T04:15:34.312Z,13.20
2023-04-18T04:18:06.866Z,13.13
2023-04-18T04:20:37.437Z,12.20
2023-04-18T04:23:13.240Z,12.32
2023-04-18T04:25:42.562Z,12.82
2023-04-18T04:28:23.904Z,11.38
2023-04-18T04:30:59.928Z,13.15
2023-04-18T04:33:33.227Z,12.35
2023-04-18T04:36:08.943Z,12.68
2023-04-18T04:38:38.400Z,11.90
2023-04-18T04:41:07.729Z,12.55
2023-04-18T04:43:35.472Z,14.07
2023-04-18T04:46:04.702Z,13.07
2023-04-18T04:48:32.258Z,13.52
2023-04-18T04:51:01.208Z,12.77
2023-04-18T04:53:32.437Z,13.02
2023-04-18T04:56:01.776Z,13.75
2023-04-18T04:58:29.352Z,12.45
2023-04-18T05:01:09.295Z,13.27
2023-04-18T05:03:38.193Z,14.18
2023-04-18T05:06:06.245Z,13.93
2023-04-18T05:08:33.795Z,13.13
2023-04-18T05:11:02.498Z,13.18
2023-04-18T05:13:30.106Z,13.50
2023-04-18T05:15:59.313Z,13.18
2023-04-18T05:18:26.851Z,12.82
2023-04-18T05:20:55.798Z,13.85
2023-04-18T05:23:23.321Z,12.95
2023-04-18T05:25:51.081Z,14.07
2023-04-18T05:28:18.496Z,13.43
2023-04-18T05:30:49.078Z,12.70
2023-04-18T05:33:18.116Z,12.02
2023-04-18T05:35:45.553Z,12.35
2023-04-18T05:38:12.994Z,12.75
2023-04-18T05:40:40.481Z,11.90
2023-04-18T05:43:08.102Z,12.30
2023-04-18T05:45:35.893Z,12.50
2023-04-18T05:48:03.558Z,12.45
2023-04-18T05:50:31.027Z,12.52
2023-04-18T05:52:59.301Z,11.50
2023-04-18T05:55:27.140Z,13.63
2023-04-18T05:57:54.584Z,12.63
2023-04-18T06:00:22.268Z,12.13
2023-04-18T06:02:53.304Z,11.35
2023-04-18T06:05:21.219Z,12.00
2023-04-18T06:07:49.163Z,11.50
2023-04-18T06:10:17.142Z,12.98
2023-04-18T06:12:44.594Z,11.55
2023-04-18T06:15:12.295Z,11.80
2023-04-18T06:17:39.911Z,11.55
2023-04-18T06:20:09.968Z,11.57
2023-04-18T06:22:37.557Z,12.23
2023-04-18T06:25:05.804Z,12.07
2023-04-18T06:27:33.275Z,12.52
2023-04-18T06:30:01.045Z,9.77
2023-04-18T06:32:28.511Z,11.55
2023-04-18T06:34:56.110Z,10.25
2023-04-18T06:37:24.125Z,10.90
2023-04-18T06:39:51.584Z,10.98
2023-04-18T06:42:21.555Z,9.10
2023-04-18T06:44:50.341Z,10.93
2023-04-18T06:47:17.961Z,9.95
2023-04-18T06:49:45.534Z,10.15
2023-04-18T06:52:13.133Z,10.15
2023-04-18T06:54:40.766Z,9.90
2023-04-18T06:57:08.811Z,9.98
2023-04-18T06:59:37.410Z,9.20
2023-04-18T07:02:04.992Z,10.23
2023-04-18T07:04:32.512Z,9.32
2023-04-18T07:07:01.611Z,8.88
2023-04-18T07:09:29.265Z,9.38
2023-04-18T07:11:56.973Z,9.52
2023-04-18T07:14:25.400Z,8.90
2023-04-18T07:16:52.941Z,9.07
2023-04-18T07:19:20.536Z,8.98
2023-04-18T07:21:47.996Z,8.93
2023-04-18T07:24:15.609Z,8.05
2023-04-18T07:26:43.414Z,8.77
2023-04-18T07:29:10.935Z,9.23
2023-04-18T07:31:38.431Z,7.95
2023-04-18T07:34:06.229Z,8.05
2023-04-18T07:36:33.828Z,8.30
2023-04-18T07:39:01.739Z,8.00
2023-04-18T07:41:29.284Z,8.85
2023-04-18T07:43:56.744Z,7.82
2023-04-18T07:46:24.205Z,8.43
2023-04-18T07:48:51.639Z,8.30
2023-04-18T07:51:19.059Z,7.63
2023-04-18T07:53:46.510Z,8.55
2023-04-18T07:56:14.511Z,8.65
2023-04-18T07:58:42.054Z,8.77
2023-04-18T08:01:13.523Z,9.15
2023-04-18T08:03:41.762Z,8.05
2023-04-18T08:06:09.773Z,7.63
2023-04-18T08:08:37.226Z,7.72
2023-04-18T08:11:04.691Z,8.65
2023-04-18T08:13:32.168Z,7.78
2023-04-18T08:16:00.303Z,7.55
2023-04-18T08:18:27.752Z,8.30
2023-04-18T08:20:55.252Z,8.43
2023-04-18T08:23:22.847Z,7.57
2023-04-18T08:25:50.962Z,8.05
2023-04-18T08:28:18.594Z,7.30
2023-04-18T08:30:49.146Z,8.02
2023-04-18T08:33:16.691Z,8.77
2023-04-18T08:35:44.228Z,8.25
2023-04-18T08:38:11.765Z,7.53
2023-04-18T08:40:39.292Z,8.13
2023-04-18T08:43:12.663Z,8.23
2023-04-18T08:45:42.214Z,8.73
2023-04-18T08:48:17.777Z,7.55
2023-04-18T08:50:45.530Z,7.50
2023-04-18T08:53:13.677Z,6.18
2023-04-18T08:55:42.115Z,7.10
2023-04-18T08:58:12.368Z,6.45
2023-04-18T09:00:40.148Z,7.35
2023-04-18T09:03:07.703Z,5.50
2023-04-18T09:05:35.622Z,6.03
2023-04-18T09:08:24.309Z,6.32
2023-04-18T09:10:51.898Z,5.63
2023-04-18T09:13:39.842Z,5.50
2023-04-18T09:16:07.388Z,6.50
2023-04-18T09:18:35.207Z,6.32
2023-04-18T09:21:19.891Z,5.80
2023-04-18T09:23:47.472Z,6.28
2023-04-18T09:26:34.201Z,6.68
2023-04-18T09:29:03.266Z,6.18
2023-04-18T09:31:30.930Z,6.90
2023-04-18T09:33:58.536Z,6.38
2023-04-18T09:36:27.936Z,6.55
2023-04-18T09:38:56.691Z,5.45
2023-04-18T09:41:24.892Z,6.35
2023-04-18T09:44:14.523Z,6.10
2023-04-18T09:46:46.671Z,6.53
2023-04-18T09:49:16.100Z,6.35
2023-04-18T09:51:46.066Z,5.53
2023-04-18T09:54:16.811Z,5.93
2023-04-18T09:56:46.482Z,6.57
2023-04-18T09:59:22.054Z,6.93
2023-04-18T10:01:51.418Z,5.93
2023-04-18T10:04:20.039Z,6.53
2023-04-18T10:06:47.859Z,6.47
2023-04-18T10:09:16.502Z,5.82
2023-04-18T10:11:44.683Z,6.00
2023-04-18T10:14:16.227Z,5.90
2023-04-18T10:16:49.917Z,6.13
2023-04-18T10:19:27.288Z,6.03
2023-04-18T10:21:58.037Z,5.68
2023-04-18T10:24:56.139Z,6.10
2023-04-18T10:27:48.614Z,6.75
2023-04-18T10:30:17.332Z,5.40
2023-04-18T10:32:48.101Z,6.07
2023-04-18T10:35:15.588Z,6.67
2023-04-18T10:37:51.193Z,6.80
2023-04-18T10:40:34.170Z,6.63
2023-04-18T10:43:02.421Z,6.57
2023-04-18T10:45:35.386Z,5.88
2023-04-18T10:48:24.805Z,6.28
2023-04-18T10:51:23.353Z,6.60
2023-04-18T10:53:59.029Z,5.95
2023-04-18T10:56:28.138Z,7.45
2023-04-18T10:59:03.084Z,7.13
2023-04-18T11:01:33.159Z,7.55
2023-04-18T11:04:01.410Z,7.60
2023-04-18T11:06:31.133Z,7.45
2023-04-18T11:09:14.633Z,7.22
2023-04-18T11:11:44.077Z,6.93
2023-04-18T11:14:12.216Z,7.47
2023-04-18T11:16:40.043Z,7.13
2023-04-18T11:19:23.519Z,7.45
2023-04-18T11:21:51.715Z,7.15
2023-04-18T11:24:25.336Z,7.85
2023-04-18T11:26:56.324Z,7.82
2023-04-18T11:29:23.969Z,8.88
2023-04-18T11:31:58.259Z,9.43
2023-04-18T11:34:31.547Z,8.25
2023-04-18T11:36:59.823Z,8.35
2023-04-18T11:39:27.982Z,8.20
2023-04-18T11:41:57.168Z,7.82
2023-04-18T11:44:26.028Z,7.82
2023-04-18T11:46:54.117Z,8.27
2023-04-18T11:49:33.015Z,8.45
2023-04-18T11:52:01.379Z,8.20
2023-04-18T11:54:43.821Z,9.13
2023-04-18T11:57:27.354Z,8.75
2023-04-18T11:59:58.076Z,9.63
2023-04-18T12:02:46.153Z,8.63
2023-04-18T12:05:32.671Z,8.50
2023-04-18T12:08:18.668Z,9.25
2023-04-18T12:10:50.931Z,9.48
2023-04-18T12:13:24.266Z,9.23
2023-04-18T12:15:51.789Z,9.27
2023-04-18T12:18:19.901Z,9.25
2023-04-18T12:20:51.484Z,9.52
2023-04-18T12:26:22.919Z,9.82
2023-04-18T12:28:52.842Z,10.43
2023-04-18T12:31:21.796Z,11.75
2023-04-18T12:33:50.560Z,11.27
2023-04-18T12:36:18.455Z,11.95
2023-04-18T12:38:46.732Z,12.13
2023-04-18T12:41:14.203Z,10.52
2023-04-18T12:43:42.032Z,12.07
2023-04-18T12:46:09.666Z,11.82
2023-04-18T12:48:37.217Z,9.95
2023-04-18T12:51:04.771Z,13.40
2023-04-18T12:53:32.242Z,12.80
2023-04-18T12:55:59.803Z,12.65
2023-04-18T12:58:27.228Z,13.18
2023-04-18T13:00:55.878Z,12.70
2023-04-18T13:03:23.697Z,12.82
2023-04-18T13:05:53.472Z,12.95
2023-04-18T13:08:22.362Z,13.73
2023-04-18T13:10:49.996Z,13.98
2023-04-18T13:13:17.562Z,12.23
2023-04-18T13:15:45.014Z,12.40
2023-04-18T13:18:12.517Z,14.07
2023-04-18T13:20:42.051Z,14.20
2023-04-18T13:23:09.534Z,13.18
2023-04-18T13:25:37.062Z,14.90
2023-04-18T13:28:04.778Z,15.05
2023-04-18T13:30:32.326Z,14.50
2023-04-18T13:32:59.937Z,15.30
2023-04-18T13:35:27.605Z,14.93
2023-04-18T13:37:55.160Z,14.15
2023-04-18T13:40:23.003Z,15.63
2023-04-18T13:42:50.999Z,14.10
2023-04-18T13:45:19.052Z,13.88
2023-04-18T13:47:46.612Z,14.63
2023-04-18T13:50:14.271Z,16.65
2023-04-18T13:52:41.869Z,14.43
2023-04-18T13:55:10.692Z,16.15
2023-04-18T13:57:38.165Z,15.75
2023-04-18T14:00:06.873Z,15.07
2023-04-18T14:02:39.653Z,17.55
2023-04-18T14:05:08.174Z,16.50
2023-04-18T14:07:36.313Z,17.33
2023-04-18T14:10:04.628Z,15.77
2023-04-18T14:12:32.240Z,15.30
2023-04-18T14:14:59.689Z,16.15
2023-04-18T14:17:27.348Z,16.70
2023-04-18T14:19:55.097Z,16.10
2023-04-18T14:22:22.649Z,15.68
2023-04-18T14:24:52.378Z,16.15
2023-04-18T14:27:20.587Z,15.70
2023-04-18T14:29:48.886Z,17.00
2023-04-18T14:32:16.358Z,17.55
2023-04-18T14:34:43.924Z,15.38
2023-04-18T14:37:11.473Z,14.52
2023-04-18T14:39:38.932Z,13.85
2023-04-18T14:42:06.374Z,14.07
2023-04-18T14:44:33.840Z,14.85
2023-04-18T14:47:01.807Z,14.75
2023-04-18T14:49:29.461Z,14.90
2023-04-18T14:51:56.977Z,14.60
2023-04-18T14:54:24.566Z,13.82
2023-04-18T14:56:52.021Z,14.30
2023-04-18T14:59:19.838Z,14.93
2023-04-18T15:01:47.706Z,14.73
2023-04-18T15:04:15.557Z,14.38
2023-04-18T15:06:43.418Z,13.65
2023-04-18T15:09:11.102Z,13.82
2023-04-18T15:11:38.591Z,13.63
2023-04-18T15:14:06.509Z,14.57
2023-04-18T15:16:38.044Z,12.93
2023-04-18T15:21:35.529Z,14.90
2023-04-18T15:24:03.566Z,13.05
2023-04-18T15:26:33.014Z,13.93
2023-04-18T15:29:04.522Z,16.13
2023-04-18T15:31:34.075Z,15.98
2023-04-18T15:34:01.843Z,14.70
2023-04-18T15:36:29.408Z,15.20
2023-04-18T15:38:56.999Z,13.82
2023-04-18T15:41:27.781Z,14.48
2023-04-18T15:43:56.917Z,15.23
2023-04-18T15:46:24.576Z,13.50
2023-04-18T15:48:52.270Z,15.13
2023-04-18T15:51:31.646Z,14.48
2023-04-18T15:53:59.344Z,14.18
2023-04-18T15:56:33.009Z,15.10
2023-04-18T15:59:04.415Z,13.90
2023-04-18T16:01:32.345Z,13.87
2023-04-18T16:04:00.002Z,13.77
2023-04-18T16:06:27.672Z,13.18
2023-04-18T16:08:55.216Z,12.95
2023-04-18T16:11:26.022Z,13.15
2023-04-18T16:13:56.067Z,14.43
2023-04-18T16:16:23.722Z,11.95
2023-04-18T16:18:51.246Z,13.27
2023-04-18T16:21:18.758Z,12.18
2023-04-18T16:23:48.904Z,13.40
2023-04-18T16:26:16.710Z,13.05
2023-04-18T16:28:44.269Z,12.95
2023-04-18T16:31:14.519Z,15.63
2023-04-18T16:33:42.523Z,14.10
2023-04-18T16:36:10.377Z,12.55
2023-04-18T16:38:38.049Z,12.38
2023-04-18T16:41:05.908Z,12.63
2023-04-18T16:43:36.736Z,13.00
2023-04-18T16:46:05.118Z,13.33
2023-04-18T16:48:33.561Z,12.15
2023-04-18T16:51:07.415Z,12.73
2023-04-18T16:53:35.491Z,14.20
2023-04-18T16:56:03.645Z,12.80
2023-04-18T16:58:32.077Z,11.65
2023-04-18T17:01:06.791Z,12.77
2023-04-18T17:03:37.464Z,13.57
2023-04-18T17:06:05.817Z,13.02
2023-04-18T17:08:34.202Z,12.48
2023-04-18T17:11:02.396Z,12.43
2023-04-18T17:13:33.064Z,14.18
2023-04-18T17:16:00.778Z,12.00
2023-04-18T17:18:29.315Z,13.07
2023-04-18T17:20:56.869Z,12.68
2023-04-18T17:23:25.891Z,12.90
2023-04-18T17:25:53.756Z,14.15
2023-04-18T17:28:23.565Z,13.82
2023-04-18T17:30:51.355Z,13.48
2023-04-18T17:33:19.059Z,13.93
2023-04-18T17:35:50.148Z,12.55
2023-04-18T17:38:17.634Z,12.68
2023-04-18T17:40:45.411Z,12.80
2023-04-18T17:43:12.891Z,12.00
2023-04-18T17:45:41.302Z,12.85
2023-04-18T17:48:08.886Z,13.02
2023-04-18T17:50:38.003Z,13.05
2023-04-18T17:53:05.513Z,11.90
2023-04-18T17:55:32.967Z,12.32
2023-04-18T17:58:00.644Z,12.82
2023-04-18T18:00:28.226Z,12.27
2023-04-18T18:02:57.029Z,13.07
2023-04-18T18:05:25.958Z,14.98
2023-04-18T18:07:54.333Z,13.70
2023-04-18T18:10:23.733Z,12.98
2023-04-18T18:12:51.733Z,13.38
2023-04-18T18:15:19.650Z,13.90
2023-04-18T18:17:51.626Z,14.50
2023-04-18T18:20:19.531Z,14.10
2023-04-18T18:22:47.765Z,12.13
2023-04-18T18:25:15.801Z,12.85
2023-04-18T18:27:43.305Z,13.98
2023-04-18T18:30:11.155Z,13.70
2023-04-18T18:32:38.739Z,12.45
2023-04-18T18:35:07.290Z,13.05
2023-04-18T18:37:34.910Z,11.45
2023-04-18T18:40:04.947Z,11.70
2023-04-18T18:42:32.523Z,11.30
2023-04-18T18:45:01.608Z,11.85
2023-04-18T18:47:30.593Z,11.23
2023-04-18T18:49:58.153Z,11.35
2023-04-18T18:52:28.052Z,11.85
2023-04-18T18:54:55.702Z,10.85
2023-04-18T18:57:23.183Z,11.48
2023-04-18T18:59:50.683Z,12.70
2023-04-18T19:02:18.372Z,12.05
2023-04-18T19:04:47.410Z,12.82
2023-04-18T19:07:15.127Z,11.50
2023-04-18T19:09:42.630Z,12.85
2023-04-18T19:12:10.125Z,12.40
2023-04-18T19:14:37.655Z,12.07
2023-04-18T19:17:05.213Z,12.45
2023-04-18T19:19:32.731Z,12.05
2023-04-18T19:22:01.243Z,11.95
2023-04-18T19:24:28.728Z,12.13
2023-04-18T19:26:56.793Z,12.27
2023-04-18T19:29:24.324Z,10.63
2023-04-18T19:31:51.885Z,11.05
2023-04-18T19:34:19.588Z,12.07
2023-04-18T19:36:47.000Z,11.52
2023-04-18T19:39:14.858Z,10.75
2023-04-18T19:41:42.531Z,12.25
2023-04-18T19:44:10.066Z,12.30
2023-04-18T19:46:37.722Z,12.60
2023-04-18T19:49:05.749Z,12.07
2023-04-18T19:51:33.314Z,11.90
2023-04-18T19:54:00.767Z,11.70
2023-04-18T19:56:28.173Z,12.48
2023-04-18T19:58:55.764Z,13.23
2023-04-18T20:01:24.891Z,12.43
2023-04-18T20:03:54.013Z,11.63
2023-04-18T20:06:25.120Z,11.60
2023-04-18T20:08:55.897Z,11.55
2023-04-18T20:11:24.387Z,10.97
2023-04-18T20:13:54.511Z,13.18
2023-04-18T20:16:23.610Z,11.80
2023-04-18T20:18:51.948Z,11.52
2023-04-18T20:21:20.996Z,12.07
2023-04-18T20:23:48.406Z,11.38
2023-04-18T20:26:15.861Z,11.98
2023-04-18T20:28:43.292Z,10.32
2023-04-18T20:31:12.594Z,10.90
2023-04-18T20:33:40.302Z,12.50
2023-04-18T20:36:08.254Z,10.80
2023-04-18T20:38:37.026Z,11.05
2023-04-18T20:41:04.553Z,11.55
2023-04-18T20:43:36.539Z,11.80
2023-04-18T20:46:04.266Z,11.98
2023-04-18T20:48:31.689Z,11.57
2023-04-18T20:50:59.147Z,12.27
2023-04-18T20:53:31.127Z,11.23
2023-04-18T20:56:02.621Z,11.70
2023-04-18T20:58:30.289Z,11.88
2023-04-18T21:00:57.808Z,11.00
2023-04-18T21:03:25.756Z,11.25
2023-04-18T21:05:53.264Z,11.52
2023-04-18T21:08:20.719Z,12.02
2023-04-18T21:10:48.125Z,10.95
2023-04-18T21:13:15.764Z,10.68
2023-04-18T21:15:43.387Z,11.95
2023-04-18T21:18:10.956Z,11.18
2023-04-18T21:20:38.589Z,11.55
2023-04-18T21:23:06.124Z,11.27
2023-04-18T21:25:33.684Z,10.55
2023-04-18T21:28:01.284Z,12.35
2023-04-18T21:30:28.796Z,11.20
2023-04-18T21:32:56.499Z,11.18
2023-04-18T21:35:24.929Z,9.90
2023-04-18T21:37:52.664Z,10.18
2023-04-18T21:40:20.193Z,11.35
2023-04-18T21:42:50.928Z,12.35
2023-04-18T21:45:19.014Z,13.03
2023-04-18T21:47:47.028Z,12.35
2023-04-18T21:50:14.645Z,11.75
2023-04-18T21:52:42.126Z,13.35
2023-04-18T21:55:09.880Z,11.43
2023-04-18T21:57:37.281Z,11.45
2023-04-18T22:00:08.499Z,11.65
2023-04-18T22:02:37.543Z,12.90
2023-04-18T22:05:05.662Z,10.82
2023-04-18T22:07:34.202Z,11.52
2023-04-18T22:10:05.780Z,13.02
2023-04-18T22:12:34.209Z,13.57
2023-04-18T22:15:01.661Z,13.10
2023-04-18T22:17:29.905Z,11.32
2023-04-18T22:19:57.760Z,11.48
2023-04-18T22:22:25.211Z,12.38
2023-04-18T22:24:52.688Z,13.32
2023-04-18T22:27:20.281Z,11.63
2023-04-18T22:29:47.749Z,12.77
2023-04-18T22:32:15.221Z,12.93
2023-04-18T22:34:42.705Z,12.43
2023-04-18T22:37:10.228Z,13.75
2023-04-18T22:39:37.824Z,12.80
2023-04-18T22:42:05.440Z,13.00
2023-04-18T22:44:33.012Z,13.80
2023-04-18T22:47:00.843Z,13.57
2023-04-18T22:49:28.437Z,13.40
2023-04-18T22:51:56.967Z,13.20
2023-04-18T22:54:24.503Z,13.38
2023-04-18T22:56:52.195Z,13.73
2023-04-18T22:59:19.780Z,12.95
2023-04-18T23:01:47.278Z,13.48
2023-04-18T23:04:15.124Z,13.88
2023-04-18T23:06:42.879Z,12.98
2023-04-18T23:09:10.381Z,12.90
2023-04-18T23:11:37.839Z,13.55
2023-04-18T23:14:06.436Z,12.15
2023-04-18T23:16:34.369Z,13.35
2023-04-18T23:19:01.803Z,13.00
2023-04-18T23:21:29.478Z,13.43
2023-04-18T23:23:57.012Z,13.18
2023-04-18T23:26:25.367Z,13.38
2023-04-18T23:28:53.437Z,13.63
2023-04-18T23:31:22.069Z,13.25
2023-04-18T23:33:49.499Z,12.98
2023-04-18T23:36:16.964Z,12.30
2023-04-18T23:38:44.533Z,13.55
2023-04-18T23:41:12.007Z,13.07
2023-04-18T23:43:39.535Z,12.35
2023-04-18T23:46:07.026Z,13.68
2023-04-18T23:48:34.565Z,11.98
2023-04-18T23:51:02.222Z,12.65
2023-04-18T23:53:30.024Z,12.82
2023-04-18T23:55:57.437Z,12.40
2023-04-18T23:58:26.357Z,13.00
